Fort Pierce, Florida
Current Conditions -  °F | °C
As of 10:53 PM on Wednesday 22 Oct 2014 (Local Time) from KFPR Reporting Station
Clear Clear  
Wind Chill: 75°   Ceiling: Unl
Heat Index: 75°   Visibility: 10mi
Dew Point: 63°   Wind: 5mph
Humidity: 66%   Direction: 30°NNE
Pressure: 29.96"   Gusts: NA
Location:  27.45°N, 80.33°W
Report Text: KFPR 230253Z AUTO 03004KT 10SM CLR 24/17 A2996 RMK AO2 SLP146 T02390172 50005
Loading
Personal Weather Stations






























Interactive Weather Map
Tropical Storm Tracking
New forecast layout! Learn more

10-Day Weather Forecast

Advertisements
Track Severe Weather on mobile